createdAt,value
2022-12-03T00:02:18.843Z,20.38
2022-12-03T00:04:45.608Z,20.98
2022-12-03T00:07:12.062Z,18.48
2022-12-03T00:09:38.685Z,26.75
2022-12-03T00:12:05.268Z,27.02
2022-12-03T00:14:31.771Z,28.35
2022-12-03T00:16:58.224Z,23.02
2022-12-03T00:19:24.844Z,27.20
2022-12-03T00:21:51.430Z,23.88
2022-12-03T00:24:17.929Z,26.20
2022-12-03T00:26:44.466Z,21.77
2022-12-03T00:29:11.282Z,23.52
2022-12-03T00:31:37.901Z,26.42
2022-12-03T00:34:04.467Z,21.83
2022-12-03T00:36:30.946Z,24.90
2022-12-03T00:38:57.399Z,24.30
2022-12-03T00:41:23.863Z,22.05
2022-12-03T00:43:50.354Z,24.92
2022-12-03T00:46:21.095Z,21.00
2022-12-03T00:48:48.201Z,24.63
2022-12-03T00:51:18.259Z,23.30
2022-12-03T00:53:46.185Z,23.70
2022-12-03T00:56:12.846Z,23.13
2022-12-03T00:58:39.308Z,17.92
2022-12-03T01:01:05.915Z,25.15
2022-12-03T01:03:32.399Z,21.50
2022-12-03T01:05:59.011Z,24.42
2022-12-03T01:08:25.460Z,21.73
2022-12-03T01:10:51.996Z,20.95
2022-12-03T01:13:18.508Z,21.10
2022-12-03T01:15:45.009Z,22.45
2022-12-03T01:18:11.585Z,19.27
2022-12-03T01:20:38.689Z,20.77
2022-12-03T01:23:05.768Z,22.02
2022-12-03T01:25:32.348Z,22.75
2022-12-03T01:27:59.663Z,21.20
2022-12-03T01:30:26.103Z,24.73
2022-12-03T01:32:52.739Z,23.27
2022-12-03T01:35:19.239Z,25.13
2022-12-03T01:37:45.760Z,22.98
2022-12-03T01:40:19.763Z,19.85
2022-12-03T01:42:57.094Z,21.42
2022-12-03T01:47:53.605Z,16.40
2022-12-03T01:50:33.627Z,22.42
2022-12-03T01:53:04.820Z,18.45
2022-12-03T01:55:31.806Z,23.90
2022-12-03T01:58:01.866Z,21.40
2022-12-03T02:00:28.988Z,25.63
2022-12-03T02:02:57.918Z,23.05
2022-12-03T02:05:27.285Z,22.40
2022-12-03T02:07:53.917Z,20.05
2022-12-03T02:10:26.188Z,21.60
2022-12-03T02:13:00.907Z,24.13
2022-12-03T02:15:27.675Z,23.60
2022-12-03T02:17:55.365Z,22.10
2022-12-03T02:20:22.331Z,21.77
2022-12-03T02:23:05.255Z,24.48
2022-12-03T02:25:34.682Z,22.02
2022-12-03T02:28:02.798Z,19.80
2022-12-03T02:30:31.028Z,20.92
2022-12-03T02:32:58.244Z,25.17
2022-12-03T02:35:29.798Z,23.17
2022-12-03T02:38:02.596Z,25.70
2022-12-03T02:40:32.796Z,22.17
2022-12-03T02:43:02.463Z,27.95
2022-12-03T02:45:32.456Z,26.95
2022-12-03T02:48:39.404Z,26.08
2022-12-03T02:51:09.349Z,28.15
2022-12-03T02:53:44.392Z,30.23
2022-12-03T02:56:13.888Z,24.83
2022-12-03T02:58:41.960Z,27.23
2022-12-03T03:01:09.543Z,26.42
2022-12-03T03:03:37.564Z,24.33
2022-12-03T03:06:07.018Z,28.20
2022-12-03T03:08:34.276Z,24.65
2022-12-03T03:11:02.383Z,19.95
2022-12-03T03:13:31.115Z,25.85
2022-12-03T03:18:24.313Z,23.83
2022-12-03T03:20:51.151Z,26.02
2022-12-03T03:23:19.893Z,23.63
2022-12-03T03:26:10.415Z,28.00
2022-12-03T03:28:44.289Z,26.88
2022-12-03T03:31:14.057Z,25.08
2022-12-03T03:33:43.473Z,22.52
2022-12-03T03:36:10.305Z,28.58
2022-12-03T03:38:37.955Z,24.42
2022-12-03T03:41:05.950Z,25.75
2022-12-03T03:43:35.192Z,25.38
2022-12-03T03:46:04.806Z,25.65
2022-12-03T03:48:34.070Z,26.35
2022-12-03T03:51:03.724Z,25.90
2022-12-03T03:53:30.895Z,32.00
2022-12-03T03:55:57.537Z,27.75
2022-12-03T03:58:27.679Z,26.98
2022-12-03T04:00:54.397Z,31.52
2022-12-03T04:03:21.012Z,24.42
2022-12-03T04:05:47.885Z,27.02
2022-12-03T04:08:14.396Z,29.67
2022-12-03T04:10:59.608Z,26.08
2022-12-03T04:13:26.128Z,27.92
2022-12-03T04:15:52.743Z,28.40
2022-12-03T04:18:37.916Z,30.40
2022-12-03T04:21:23.152Z,30.73
2022-12-03T04:23:49.671Z,27.30
2022-12-03T04:26:34.734Z,33.45
2022-12-03T04:29:01.227Z,30.73
2022-12-03T04:31:49.396Z,29.65
2022-12-03T04:34:34.273Z,29.77
2022-12-03T04:37:00.810Z,34.03
2022-12-03T04:39:27.276Z,31.10
2022-12-03T04:41:53.808Z,27.83
2022-12-03T04:44:36.444Z,30.20
2022-12-03T04:47:17.775Z,32.00
2022-12-03T04:49:46.728Z,30.58
2022-12-03T04:52:14.937Z,29.08
2022-12-03T04:54:41.456Z,32.22
2022-12-03T04:57:09.291Z,27.63
2022-12-03T04:59:36.524Z,29.10
2022-12-03T05:02:04.092Z,32.13
2022-12-03T05:04:31.141Z,33.42
2022-12-03T05:07:00.783Z,25.65
2022-12-03T05:09:27.271Z,29.55
2022-12-03T05:11:53.839Z,23.52
2022-12-03T05:14:20.341Z,29.08
2022-12-03T05:16:46.911Z,28.88
2022-12-03T05:19:13.588Z,23.92
2022-12-03T05:21:40.052Z,27.45
2022-12-03T05:24:06.702Z,21.23
2022-12-03T05:26:33.238Z,21.92
2022-12-03T05:28:59.788Z,27.13
2022-12-03T05:31:26.759Z,32.20
2022-12-03T05:33:54.706Z,22.63
2022-12-03T05:36:21.394Z,27.38
2022-12-03T05:38:47.868Z,28.42
2022-12-03T05:41:32.904Z,24.10
2022-12-03T05:43:59.407Z,25.10
2022-12-03T05:46:25.909Z,28.70
2022-12-03T05:48:52.722Z,26.23
2022-12-03T05:51:19.193Z,25.02
2022-12-03T05:53:45.692Z,25.00
2022-12-03T05:56:12.463Z,31.42
2022-12-03T05:58:39.131Z,24.20
2022-12-03T06:01:05.770Z,25.63
2022-12-03T06:03:32.563Z,27.60
2022-12-03T06:05:59.380Z,28.65
2022-12-03T06:08:25.839Z,27.73
2022-12-03T06:10:52.375Z,25.85
2022-12-03T06:13:18.873Z,23.33
2022-12-03T06:15:45.659Z,27.98
2022-12-03T06:18:12.309Z,29.20
2022-12-03T06:20:39.156Z,27.55
2022-12-03T06:23:05.625Z,25.65
2022-12-03T06:25:32.282Z,25.35
2022-12-03T06:27:58.765Z,29.45
2022-12-03T06:30:25.199Z,29.80
2022-12-03T06:32:51.736Z,26.83
2022-12-03T06:35:18.168Z,27.33
2022-12-03T06:37:44.661Z,25.50
2022-12-03T06:40:11.869Z,23.73
2022-12-03T06:42:38.330Z,23.10
2022-12-03T06:45:05.265Z,25.70
2022-12-03T06:47:31.751Z,26.77
2022-12-03T06:49:58.278Z,24.80
2022-12-03T06:52:24.860Z,30.20
2022-12-03T06:54:51.457Z,21.35
2022-12-03T06:57:18.279Z,27.17
2022-12-03T06:59:44.950Z,25.42
2022-12-03T07:02:12.733Z,24.13
2022-12-03T07:04:43.423Z,23.92
2022-12-03T07:07:12.683Z,26.35
2022-12-03T07:09:39.207Z,26.48
2022-12-03T07:12:06.066Z,27.48
2022-12-03T07:14:32.712Z,26.17
2022-12-03T07:16:59.285Z,27.80
2022-12-03T07:19:32.077Z,25.75
2022-12-03T07:21:59.284Z,23.92
2022-12-03T07:24:25.837Z,29.40
2022-12-03T07:26:52.476Z,29.88
2022-12-03T07:29:19.046Z,29.48
2022-12-03T07:31:45.706Z,22.65
2022-12-03T07:34:12.340Z,28.13
2022-12-03T07:36:39.123Z,27.83
2022-12-03T07:39:05.760Z,26.02
2022-12-03T07:41:32.332Z,31.83
2022-12-03T07:43:58.834Z,25.67
2022-12-03T07:46:25.516Z,29.92
2022-12-03T07:48:52.159Z,28.90
2022-12-03T07:51:18.757Z,30.30
2022-12-03T07:53:45.263Z,31.13
2022-12-03T07:56:11.917Z,30.80
2022-12-03T07:58:38.751Z,25.50
2022-12-03T08:01:05.416Z,29.25
2022-12-03T08:03:31.986Z,33.03
2022-12-03T08:05:59.233Z,28.45
2022-12-03T08:08:29.672Z,27.50
2022-12-03T08:13:57.469Z,32.72
2022-12-03T08:16:23.995Z,32.97
2022-12-03T08:18:51.476Z,34.08
2022-12-03T08:21:21.116Z,34.05
2022-12-03T08:23:48.227Z,28.30
2022-12-03T08:26:24.974Z,34.75
2022-12-03T08:28:52.482Z,28.98
2022-12-03T08:31:32.319Z,31.77
2022-12-03T08:34:15.424Z,31.02
2022-12-03T08:36:42.015Z,32.95
2022-12-03T08:39:34.733Z,32.90
2022-12-03T08:42:41.859Z,27.50
2022-12-03T08:45:39.293Z,31.67
2022-12-03T08:48:22.357Z,35.70
2022-12-03T08:50:48.856Z,29.35
2022-12-03T08:53:29.171Z,35.90
2022-12-03T08:56:19.183Z,31.58
2022-12-03T08:58:48.542Z,32.80
2022-12-03T09:01:41.982Z,22.98
2022-12-03T09:04:23.295Z,26.05
2022-12-03T09:06:51.401Z,28.30
2022-12-03T09:09:18.232Z,27.98
2022-12-03T09:11:45.172Z,31.73
2022-12-03T09:14:18.130Z,27.77
2022-12-03T09:16:45.299Z,30.50
2022-12-03T09:19:11.842Z,28.35
2022-12-03T09:21:38.273Z,31.17
2022-12-03T09:24:04.944Z,28.35
2022-12-03T09:26:31.456Z,21.85
2022-12-03T09:28:58.055Z,29.30
2022-12-03T09:31:24.585Z,21.08
2022-12-03T09:33:51.246Z,27.52
2022-12-03T09:36:17.902Z,25.45
2022-12-03T09:38:47.592Z,26.08
2022-12-03T09:41:14.531Z,30.60
2022-12-03T09:44:03.294Z,26.95
2022-12-03T09:46:29.281Z,25.42
2022-12-03T09:48:55.928Z,23.98
2022-12-03T09:51:27.994Z,33.08
2022-12-03T09:53:54.499Z,32.30
2022-12-03T09:56:23.308Z,29.52
2022-12-03T09:58:50.520Z,27.33
2022-12-03T10:01:17.951Z,23.90
2022-12-03T10:03:47.849Z,31.95
2022-12-03T10:06:20.885Z,25.80
2022-12-03T10:08:49.945Z,25.52
2022-12-03T10:11:18.539Z,25.42
2022-12-03T10:13:46.196Z,32.17
2022-12-03T10:16:15.843Z,24.92
2022-12-03T10:18:48.581Z,27.40
2022-12-03T10:21:32.427Z,28.13
2022-12-03T10:24:20.272Z,32.10
2022-12-03T10:26:48.868Z,28.63
2022-12-03T10:31:45.431Z,31.60
2022-12-03T10:34:11.977Z,31.63
2022-12-03T10:36:38.635Z,32.35
2022-12-03T10:39:15.731Z,27.33
2022-12-03T10:41:43.943Z,31.08
2022-12-03T10:44:23.742Z,29.88
2022-12-03T10:47:20.983Z,29.33
2022-12-03T10:50:03.201Z,24.85
2022-12-03T10:52:29.909Z,28.05
2022-12-03T10:54:56.785Z,27.40
2022-12-03T10:57:23.850Z,29.08
2022-12-03T10:59:50.900Z,30.10
2022-12-03T11:02:23.444Z,32.55
2022-12-03T11:04:51.279Z,33.42
2022-12-03T11:07:20.012Z,34.78
2022-12-03T11:09:49.742Z,30.15
2022-12-03T11:12:20.835Z,33.67
2022-12-03T11:14:54.430Z,27.77
2022-12-03T11:17:51.561Z,33.83
2022-12-03T11:20:22.798Z,32.72
2022-12-03T11:22:56.259Z,27.27
2022-12-03T11:25:25.876Z,29.92
2022-12-03T11:28:10.450Z,33.50
2022-12-03T11:30:49.273Z,33.35
2022-12-03T11:33:23.668Z,30.58
2022-12-03T11:36:10.641Z,33.65
2022-12-03T11:38:37.228Z,31.50
2022-12-03T11:41:15.805Z,32.03
2022-12-03T11:43:58.377Z,32.95
2022-12-03T11:46:39.212Z,29.67
2022-12-03T11:51:55.880Z,33.28
2022-12-03T11:54:24.200Z,34.90
2022-12-03T11:56:52.528Z,31.58
2022-12-03T11:59:19.668Z,28.45
2022-12-03T12:01:46.419Z,29.27
2022-12-03T12:04:34.356Z,32.67
2022-12-03T12:07:01.562Z,34.10
2022-12-03T12:09:51.052Z,29.25
2022-12-03T12:12:31.222Z,33.72
2022-12-03T12:14:59.088Z,37.47
2022-12-03T12:17:34.483Z,34.63
2022-12-03T12:20:12.499Z,37.70
2022-12-03T12:22:39.368Z,34.17
2022-12-03T12:25:39.704Z,37.85
2022-12-03T12:28:06.846Z,37.22
2022-12-03T12:30:33.560Z,29.65
2022-12-03T12:33:23.312Z,33.38
2022-12-03T12:35:50.823Z,35.08
2022-12-03T12:38:22.576Z,33.58
2022-12-03T12:40:50.372Z,35.33
2022-12-03T12:43:25.752Z,37.35
2022-12-03T12:45:54.907Z,34.78
2022-12-03T12:48:27.168Z,39.13
2022-12-03T12:51:20.825Z,41.03
2022-12-03T12:53:49.040Z,39.60
2022-12-03T12:56:27.393Z,37.03
2022-12-03T12:58:56.461Z,35.55
2022-12-03T13:01:31.526Z,40.38
2022-12-03T13:03:59.448Z,39.42
2022-12-03T13:06:30.065Z,40.35
2022-12-03T13:08:57.383Z,34.58
2022-12-03T13:11:42.314Z,40.17
2022-12-03T13:14:20.197Z,37.08
2022-12-03T13:16:48.243Z,41.17
2022-12-03T13:19:43.155Z,42.42
2022-12-03T13:22:19.017Z,36.00
2022-12-03T13:24:53.532Z,37.58
2022-12-03T13:27:19.972Z,39.10
2022-12-03T13:29:50.879Z,36.67
2022-12-03T13:32:23.324Z,32.22
2022-12-03T13:34:52.656Z,36.72
2022-12-03T13:37:28.136Z,34.40
2022-12-03T13:39:57.196Z,36.50
2022-12-03T13:42:46.549Z,38.22
2022-12-03T13:45:16.061Z,33.63
2022-12-03T13:47:48.763Z,33.22
2022-12-03T13:50:32.467Z,30.77
2022-12-03T13:53:01.496Z,35.63
2022-12-03T13:55:31.158Z,31.90
2022-12-03T13:57:58.235Z,31.17
2022-12-03T14:00:24.894Z,38.53
2022-12-03T14:02:51.586Z,33.00
2022-12-03T14:05:18.268Z,36.78
2022-12-03T14:07:44.890Z,32.83
2022-12-03T14:10:12.007Z,41.42
2022-12-03T14:12:38.842Z,35.47
2022-12-03T14:15:06.445Z,38.63
2022-12-03T14:17:50.894Z,34.63
2022-12-03T14:20:18.123Z,35.35
2022-12-03T14:22:44.661Z,40.65
2022-12-03T14:25:11.763Z,36.53
2022-12-03T14:27:38.339Z,36.88
2022-12-03T14:30:05.575Z,34.58
2022-12-03T14:32:31.991Z,33.75
2022-12-03T14:34:58.594Z,33.33
2022-12-03T14:37:25.059Z,26.77
2022-12-03T14:39:55.064Z,30.17
2022-12-03T14:42:21.646Z,32.45
2022-12-03T14:44:52.082Z,30.45
2022-12-03T14:47:22.550Z,35.30
2022-12-03T14:49:49.883Z,32.50
2022-12-03T14:52:17.228Z,33.80
2022-12-03T14:54:44.574Z,31.27
2022-12-03T14:57:12.861Z,35.63
2022-12-03T14:59:43.705Z,33.25
2022-12-03T15:02:11.374Z,32.13
2022-12-03T15:04:39.587Z,27.83
2022-12-03T15:07:06.175Z,33.22
2022-12-03T15:09:32.690Z,30.77
2022-12-03T15:11:59.998Z,26.83
2022-12-03T15:14:26.820Z,29.15
2022-12-03T15:16:53.545Z,30.48
2022-12-03T15:19:20.200Z,30.00
2022-12-03T15:21:46.663Z,34.63
2022-12-03T15:24:13.246Z,31.23
2022-12-03T15:26:39.718Z,40.08
2022-12-03T15:29:06.276Z,37.90
2022-12-03T15:31:46.635Z,31.75
2022-12-03T15:34:22.133Z,32.92
2022-12-03T15:36:55.332Z,28.48
2022-12-03T15:39:22.355Z,35.65
2022-12-03T15:41:49.205Z,36.00
2022-12-03T15:44:17.275Z,34.20
2022-12-03T15:46:46.864Z,30.95
2022-12-03T15:49:16.139Z,33.38
2022-12-03T15:51:45.389Z,41.47
2022-12-03T15:54:12.531Z,36.78
2022-12-03T15:56:39.311Z,40.17
2022-12-03T15:59:06.139Z,36.85
2022-12-03T16:01:33.142Z,45.63
2022-12-03T16:04:05.115Z,40.45
2022-12-03T16:06:32.046Z,35.53
2022-12-03T16:09:47.264Z,64.43
2022-12-03T16:12:16.136Z,45.80
2022-12-03T16:17:30.275Z,38.50
2022-12-03T16:20:07.168Z,41.17
2022-12-03T16:22:36.060Z,36.20
2022-12-03T16:25:08.891Z,44.72
2022-12-03T16:27:37.532Z,46.75
2022-12-03T16:30:06.024Z,38.95
2022-12-03T16:32:38.029Z,40.95
2022-12-03T16:35:05.724Z,41.50
2022-12-03T16:37:38.937Z,41.28
2022-12-03T16:40:12.279Z,42.03
2022-12-03T16:42:41.543Z,37.15
2022-12-03T16:45:11.284Z,40.45
2022-12-03T16:47:46.394Z,33.83
2022-12-03T16:50:23.048Z,42.05
2022-12-03T16:55:45.611Z,37.35
2022-12-03T16:58:22.114Z,36.10
2022-12-03T17:00:53.564Z,42.00
2022-12-03T17:03:26.637Z,36.45
2022-12-03T17:06:01.032Z,31.88
2022-12-03T17:08:33.337Z,36.90
2022-12-03T17:11:13.788Z,36.20
2022-12-03T17:13:45.634Z,35.78
2022-12-03T17:16:21.250Z,28.27
2022-12-03T17:18:48.348Z,31.48
2022-12-03T17:21:18.768Z,32.88
2022-12-03T17:23:48.954Z,31.77
2022-12-03T17:26:15.924Z,34.75
2022-12-03T17:28:44.259Z,38.50
2022-12-03T17:31:14.795Z,36.60
2022-12-03T17:33:44.099Z,37.08
2022-12-03T17:36:17.150Z,34.15
2022-12-03T17:38:50.007Z,28.85
2022-12-03T17:41:21.387Z,33.72
2022-12-03T17:43:50.555Z,34.83
2022-12-03T17:46:17.547Z,33.92
2022-12-03T17:48:47.205Z,32.63
2022-12-03T17:51:19.288Z,32.17
2022-12-03T17:53:51.715Z,37.83
2022-12-03T17:56:27.753Z,38.08
2022-12-03T17:58:54.582Z,32.17
2022-12-03T18:01:21.474Z,29.98
2022-12-03T18:03:53.151Z,36.13
2022-12-03T18:06:24.003Z,38.78
2022-12-03T18:08:54.551Z,38.50
2022-12-03T18:11:29.035Z,39.80
2022-12-03T18:13:55.962Z,33.97
2022-12-03T18:16:29.180Z,37.47
2022-12-03T18:19:06.313Z,34.22
2022-12-03T18:21:42.553Z,34.85
2022-12-03T18:24:46.233Z,36.65
2022-12-03T18:27:16.018Z,36.25
2022-12-03T18:29:51.415Z,36.83
2022-12-03T18:32:29.397Z,39.97
2022-12-03T18:35:01.706Z,41.70
2022-12-03T18:37:30.139Z,36.53
2022-12-03T18:39:58.174Z,48.05
2022-12-03T18:42:30.028Z,40.70
2022-12-03T18:44:57.321Z,37.13
2022-12-03T18:47:31.042Z,41.90
2022-12-03T18:50:00.389Z,37.58
2022-12-03T18:52:33.445Z,39.90
2022-12-03T18:55:00.391Z,42.45
2022-12-03T18:57:27.436Z,42.90
2022-12-03T19:00:03.531Z,43.05
2022-12-03T19:03:01.245Z,42.47
2022-12-03T19:05:25.039Z,47.13
2022-12-03T19:07:55.150Z,35.63
2022-12-03T19:10:28.272Z,42.88
2022-12-03T19:12:59.890Z,43.33
2022-12-03T19:15:35.377Z,41.65
2022-12-03T19:18:07.892Z,43.78
2022-12-03T19:20:39.523Z,40.92
2022-12-03T19:23:08.738Z,37.40
2022-12-03T19:25:44.916Z,40.90
2022-12-03T19:28:11.939Z,39.45
2022-12-03T19:30:41.397Z,38.47
2022-12-03T19:33:18.064Z,41.55
2022-12-03T19:35:49.288Z,35.42
2022-12-03T19:38:18.471Z,34.40
2022-12-03T19:41:05.438Z,38.05
2022-12-03T19:43:37.560Z,36.35
2022-12-03T19:46:10.986Z,39.47
2022-12-03T19:48:40.919Z,34.72
2022-12-03T19:51:32.918Z,34.95
2022-12-03T19:54:05.064Z,39.63
2022-12-03T19:56:34.704Z,37.35
2022-12-03T19:59:01.793Z,35.83
2022-12-03T20:01:40.454Z,34.33
2022-12-03T20:04:11.709Z,32.15
2022-12-03T20:06:50.522Z,36.17
2022-12-03T20:09:28.327Z,30.75
2022-12-03T20:14:34.325Z,33.95
2022-12-03T20:17:13.271Z,34.83
2022-12-03T20:19:40.233Z,34.40
2022-12-03T20:22:09.047Z,31.90
2022-12-03T20:24:35.651Z,29.85
2022-12-03T20:27:02.212Z,32.95
2022-12-03T20:29:30.223Z,31.80
2022-12-03T20:31:59.106Z,34.78
2022-12-03T20:34:25.619Z,35.45
2022-12-03T20:36:52.089Z,33.72
2022-12-03T20:39:18.583Z,38.85
2022-12-03T20:41:45.224Z,28.83
2022-12-03T20:44:14.046Z,36.78
2022-12-03T20:46:40.615Z,37.42
2022-12-03T20:49:07.239Z,32.03
2022-12-03T20:51:34.264Z,35.80
2022-12-03T20:54:01.740Z,38.55
2022-12-03T20:56:31.675Z,27.55
2022-12-03T20:59:07.074Z,35.00
2022-12-03T21:01:35.912Z,38.50
2022-12-03T21:04:04.257Z,35.80
2022-12-03T21:06:31.057Z,36.17
2022-12-03T21:08:58.813Z,31.95
2022-12-03T21:11:29.719Z,36.83
2022-12-03T21:13:58.942Z,36.30
2022-12-03T21:16:59.144Z,34.72
2022-12-03T21:19:20.198Z,33.38
2022-12-03T21:21:46.955Z,32.33
2022-12-03T21:24:15.881Z,31.55
2022-12-03T21:26:45.512Z,35.38
2022-12-03T21:29:12.110Z,34.45
2022-12-03T21:31:41.086Z,38.65
2022-12-03T21:34:19.862Z,34.88
2022-12-03T21:36:46.588Z,33.20
2022-12-03T21:39:14.438Z,35.25
2022-12-03T21:41:41.036Z,31.33
2022-12-03T21:44:36.748Z,34.00
2022-12-03T21:47:11.391Z,36.55
2022-12-03T21:49:42.720Z,35.53
2022-12-03T21:52:12.465Z,33.15
2022-12-03T21:54:43.236Z,40.03
2022-12-03T21:57:10.195Z,35.90
2022-12-03T21:59:40.173Z,34.08
2022-12-03T22:02:27.776Z,38.70
2022-12-03T22:04:54.754Z,36.20
2022-12-03T22:07:23.569Z,36.30
2022-12-03T22:12:26.348Z,32.00
2022-12-03T22:14:57.992Z,35.03
2022-12-03T22:17:27.734Z,31.38
2022-12-03T22:20:08.258Z,38.95
2022-12-03T22:22:35.264Z,40.20
2022-12-03T22:25:05.384Z,38.10
2022-12-03T22:27:32.479Z,40.63
2022-12-03T22:29:59.414Z,35.70
2022-12-03T22:32:34.005Z,35.47
2022-12-03T22:35:03.127Z,33.60
2022-12-03T22:37:35.489Z,43.75
2022-12-03T22:40:06.093Z,42.95
2022-12-03T22:42:32.767Z,35.03
2022-12-03T22:44:59.366Z,35.85
2022-12-03T22:47:26.536Z,47.03
2022-12-03T22:49:56.517Z,39.60
2022-12-03T22:52:24.025Z,35.00
2022-12-03T22:54:54.225Z,40.42
2022-12-03T22:57:28.886Z,41.00
2022-12-03T23:00:00.497Z,42.25
2022-12-03T23:02:34.056Z,35.63
2022-12-03T23:05:01.261Z,39.47
2022-12-03T23:07:28.602Z,39.20
2022-12-03T23:09:55.567Z,42.00
2022-12-03T23:12:22.337Z,39.72
2022-12-03T23:14:52.780Z,33.42
2022-12-03T23:17:19.264Z,35.35
2022-12-03T23:19:45.865Z,36.13
2022-12-03T23:22:15.155Z,37.65
2022-12-03T23:24:41.631Z,37.75
2022-12-03T23:27:08.119Z,38.20
2022-12-03T23:29:35.164Z,38.33
2022-12-03T23:32:01.636Z,43.40
2022-12-03T23:34:28.216Z,42.90
2022-12-03T23:36:54.868Z,38.30
2022-12-03T23:39:21.385Z,41.88
2022-12-03T23:41:51.062Z,39.20
2022-12-03T23:44:17.629Z,37.45
2022-12-03T23:46:44.192Z,39.22
2022-12-03T23:49:10.841Z,35.08
2022-12-03T23:51:37.343Z,33.50
2022-12-03T23:54:03.884Z,36.83
2022-12-03T23:56:30.782Z,35.05
2022-12-03T23:58:57.970Z,34.08
